Aérodrome :
LOGIN :

S'inscrire | Disclaimer

   EN    FR    IT 

 










Légende :    VFR   VFR Marginal   IFR   IFR Intensif   IFR Très Intensif
Visi : 
Plafond : 
>= 8 km
>= 3000ft
5 à 8 km
1000 à 3000 ft
1500m à 5 km
500 à 1000 ft
800 à 1500m
200 à 500 ft
< 800m
< 200 ft
Symboles :   Orages  Brouillard  Fortes neiges  Fortes précipitations  Vent > 20 kt
SIGMETs :   Divers  Orages  Givrage  Turbulence  Onde Orograph.  Cendres Volcan.






- Altitude de l'aérodrome : 97 ft
- Code IATA : EBJ


EKEB - Esbjerg

DERNIER METAR :
  • 011150Z AUTO 04006KT 9999 OVC005/// 04/04 Q1017

METARs EXPIRÉS :
  • 011120Z AUTO 04005KT 9999 OVC004/// 04/04 Q1017
  • 011050Z AUTO 01005KT 9999 OVC003/// 04/04 Q1017
  • 011020Z AUTO 02004KT 350V050 9999 BKN003/// 04/04 Q1016
  • 010950Z AUTO 35005KT 9999 BKN003/// BKN041/// 04/03 Q1016
  • 010920Z AUTO 04004KT 9999 BKN035/// 04/03 Q1015

TAF AMD TAF EKEB
Valide du 01 à 11h jusqu'au 01 à 18h UTC


011129Z 0111/0118 04005KT 9999 BKN008
TEMPO 0111/0113 BKN003
BECMG 0114/0117 4000 BR BKN020
TEMPO 0117/0118 BKN010



MET'MAP, la Météo Aéronautique d'un coup d'oeil ! - Copyright ORBIFLY Décembre 2007 - Disclaimer

ORBIFLY MET'MAP TEAM :

Programmation & Développement : Alexandra Zaïnal
Sur une idée originale de : Baudouin d'Aumeries
Assistance à la programmation : Marc-Olivier Méhu
Soutien technique & logistique : Manuel Goepfert

Contact : metmap@orbifly.com




SOURCES & CREDITS :

   NOAA